Time;durP1;ratioP1;P1;durP2;ratioP2;P2;SDS_P1;SDS_P2;PMS_P1;PMS_P2;Temp;Humidity;BMP_temperature;BMP_pressure;BME280_temperature;BME280_humidity;BME280_pressure;Samples;Min_cycle;Max_cycle;Signal;HPM_P1;HPM_P2
2023/12/21 00:00:15;;;;;;;7.30;3.60;;;;;;;;;;694915;28;748;-73
2023/12/21 00:00:35;;;;;;;6.97;3.57;;;;;;;;;;693141;28;1435;-72
2023/12/21 00:00:55;;;;;;;7.25;3.80;;;;;;;;;;693376;28;4221;-73
2023/12/21 00:01:16;;;;;;;6.47;3.73;;;;;;;;;;692016;28;817;-70
2023/12/21 00:01:36;;;;;;;5.87;3.20;;;;;;;;;;691801;28;1182;-72
2023/12/21 00:01:57;;;;;;;6.45;3.63;;;;;;;;;;687986;28;1409;-72
2023/12/21 00:02:17;;;;;;;5.53;3.27;;;;;;;;;;688475;28;1278;-74
2023/12/21 00:02:37;;;;;;;6.47;3.40;;;;;;;;;;689924;28;1363;-73
2023/12/21 00:02:57;;;;;;;6.43;3.60;;;;;;;;;;688999;28;964;-75
2023/12/21 00:03:18;;;;;;;6.93;3.43;;;;;;;;;;690124;28;1323;-71
2023/12/21 00:03:38;;;;;;;6.72;3.25;;;;;;;;;;687283;28;4402;-72
2023/12/21 00:03:58;;;;;;;6.27;3.50;;;;;;;;;;688572;28;1236;-71
2023/12/21 00:04:19;;;;;;;6.60;3.57;;;;;;;;;;688694;28;929;-73
2023/12/21 00:04:39;;;;;;;6.10;3.63;;;;;;;;;;684152;28;1187;-73
2023/12/21 00:05:00;;;;;;;7.25;3.47;;;;;;;;;;684837;28;1216;-74
2023/12/21 00:05:20;;;;;;;6.70;3.60;;;;;;;;;;686787;28;896;-74
2023/12/21 00:05:41;;;;;;;5.40;3.60;;;;;;;;;;683017;28;1223;-71
2023/12/21 00:06:02;;;;;;;6.75;3.42;;;;;;;;;;687736;28;801;-72
2023/12/21 00:06:22;;;;;;;7.87;4.00;;;;;;;;;;687930;28;1405;-73
2023/12/21 00:06:43;;;;;;;7.45;3.92;;;;;;;;;;689331;28;4257;-73
2023/12/21 00:07:05;;;;;;;6.03;3.50;;;;;;;;;;691694;28;931;-73
2023/12/21 00:07:26;;;;;;;6.75;3.50;;;;;;;;;;691934;28;1197;-70
2023/12/21 00:07:47;;;;;;;6.30;3.72;;;;;;;;;;692941;28;860;-72
2023/12/21 00:08:09;;;;;;;6.80;3.90;;;;;;;;;;692613;28;1152;-73
2023/12/21 00:08:30;;;;;;;7.93;3.58;;;;;;;;;;691945;28;915;-70
2023/12/21 00:08:50;;;;;;;7.67;3.23;;;;;;;;;;692919;28;1110;-73
2023/12/21 00:09:10;;;;;;;7.15;3.60;;;;;;;;;;692450;28;1451;-73
2023/12/21 00:09:31;;;;;;;6.00;3.23;;;;;;;;;;692107;28;1005;-72
2023/12/21 00:09:53;;;;;;;5.57;3.30;;;;;;;;;;691859;28;4250;-70
2023/12/21 00:10:13;;;;;;;6.65;3.47;;;;;;;;;;693207;28;825;-73
2023/12/21 00:10:33;;;;;;;6.33;3.40;;;;;;;;;;691802;28;1213;-73
2023/12/21 00:10:54;;;;;;;6.15;3.10;;;;;;;;;;692724;28;940;-74
2023/12/21 00:11:14;;;;;;;5.93;3.20;;;;;;;;;;691566;28;1290;-72
2023/12/21 00:11:34;;;;;;;6.03;3.10;;;;;;;;;;691425;28;1246;-74
2023/12/21 00:11:56;;;;;;;7.13;3.00;;;;;;;;;;694880;28;971;-71
2023/12/21 00:12:16;;;;;;;6.60;3.13;;;;;;;;;;693152;28;965;-70
2023/12/21 00:12:36;;;;;;;6.83;3.10;;;;;;;;;;690626;28;4290;-74
2023/12/21 00:12:56;;;;;;;5.87;3.20;;;;;;;;;;688256;28;1291;-74
2023/12/21 00:13:16;;;;;;;6.27;3.10;;;;;;;;;;689448;28;833;-74
2023/12/21 00:13:37;;;;;;;6.37;3.00;;;;;;;;;;691339;28;1250;-74
2023/12/21 00:13:58;;;;;;;7.67;3.37;;;;;;;;;;692893;28;1957;-73
2023/12/21 00:14:18;;;;;;;7.18;3.20;;;;;;;;;;692815;28;1051;-72
2023/12/21 00:14:39;;;;;;;6.33;3.10;;;;;;;;;;694272;28;1417;-75
2023/12/21 00:14:59;;;;;;;6.50;3.20;;;;;;;;;;691896;28;1942;-73
2023/12/21 00:15:19;;;;;;;6.60;3.40;;;;;;;;;;692144;28;916;-72
2023/12/21 00:15:40;;;;;;;5.13;3.40;;;;;;;;;;688436;28;4290;-75
2023/12/21 00:16:00;;;;;;;5.07;3.27;;;;;;;;;;692237;28;1263;-74
2023/12/21 00:16:20;;;;;;;5.50;3.10;;;;;;;;;;691951;28;1703;-74
2023/12/21 00:16:41;;;;;;;5.40;3.00;;;;;;;;;;694021;28;1176;-73
2023/12/21 00:17:01;;;;;;;6.25;3.50;;;;;;;;;;690923;28;978;-73
2023/12/21 00:17:21;;;;;;;7.10;3.60;;;;;;;;;;691043;28;1000;-72
2023/12/21 00:17:41;;;;;;;6.83;3.50;;;;;;;;;;689764;28;1131;-74
2023/12/21 00:18:02;;;;;;;6.07;3.38;;;;;;;;;;690365;28;864;-74
2023/12/21 00:18:22;;;;;;;6.67;3.20;;;;;;;;;;690246;28;912;-74
2023/12/21 00:18:42;;;;;;;6.60;3.20;;;;;;;;;;688393;28;4765;-74
2023/12/21 00:19:02;;;;;;;7.90;3.30;;;;;;;;;;695087;28;1249;-72
2023/12/21 00:19:23;;;;;;;7.90;3.40;;;;;;;;;;695561;28;1227;-71
2023/12/21 00:19:43;;;;;;;6.07;3.60;;;;;;;;;;697352;28;1212;-74
2023/12/21 00:20:04;;;;;;;6.40;3.80;;;;;;;;;;695260;28;3711;-73
2023/12/21 00:20:24;;;;;;;7.25;3.83;;;;;;;;;;695525;28;998;-74
2023/12/21 00:20:45;;;;;;;7.43;3.70;;;;;;;;;;694272;28;1096;-74
2023/12/21 00:21:06;;;;;;;6.07;3.67;;;;;;;;;;690158;28;1366;-74
2023/12/21 00:21:26;;;;;;;6.10;3.40;;;;;;;;;;688862;28;1022;-78
2023/12/21 00:21:46;;;;;;;6.37;3.30;;;;;;;;;;686107;28;4259;-74
2023/12/21 00:22:07;;;;;;;6.47;3.27;;;;;;;;;;687275;28;872;-73
2023/12/21 00:22:27;;;;;;;6.78;3.35;;;;;;;;;;688669;28;2280;-73
2023/12/21 00:22:47;;;;;;;7.77;3.57;;;;;;;;;;690733;28;1089;-73
2023/12/21 00:23:07;;;;;;;5.77;3.37;;;;;;;;;;692654;28;785;-73
2023/12/21 00:23:28;;;;;;;5.60;3.33;;;;;;;;;;688709;28;1974;-73
2023/12/21 00:23:48;;;;;;;6.60;3.63;;;;;;;;;;689586;28;1406;-72
2023/12/21 00:24:08;;;;;;;5.63;3.37;;;;;;;;;;691134;28;1374;-69
2023/12/21 00:24:29;;;;;;;5.32;3.30;;;;;;;;;;689018;28;1853;-70
2023/12/21 00:24:49;;;;;;;6.80;3.40;;;;;;;;;;689040;28;4274;-72
2023/12/21 00:25:09;;;;;;;5.33;3.30;;;;;;;;;;689974;28;896;-71
2023/12/21 00:25:29;;;;;;;5.53;3.50;;;;;;;;;;691070;28;2066;-72
2023/12/21 00:25:50;;;;;;;7.10;3.80;;;;;;;;;;692000;28;1304;-73
2023/12/21 00:26:10;;;;;;;6.83;3.77;;;;;;;;;;691117;28;1026;-73
2023/12/21 00:26:30;;;;;;;6.87;3.80;;;;;;;;;;689214;28;2326;-74
2023/12/21 00:26:50;;;;;;;5.78;3.35;;;;;;;;;;691717;28;1231;-72
2023/12/21 00:27:10;;;;;;;6.10;3.50;;;;;;;;;;690279;28;848;-73
2023/12/21 00:27:31;;;;;;;5.20;3.30;;;;;;;;;;687403;28;1700;-74
2023/12/21 00:27:51;;;;;;;6.40;3.40;;;;;;;;;;684296;28;4326;-73
2023/12/21 00:28:11;;;;;;;6.70;3.37;;;;;;;;;;684563;28;1240;-73
2023/12/21 00:28:32;;;;;;;7.18;3.45;;;;;;;;;;683744;28;2416;-73
2023/12/21 00:28:52;;;;;;;8.30;3.57;;;;;;;;;;684845;28;893;-73
2023/12/21 00:29:13;;;;;;;8.20;3.50;;;;;;;;;;681994;28;877;-74
2023/12/21 00:29:33;;;;;;;7.20;3.30;;;;;;;;;;684052;28;1720;-73
2023/12/21 00:29:53;;;;;;;6.70;3.50;;;;;;;;;;687801;28;1292;-73
2023/12/21 00:30:14;;;;;;;6.22;3.42;;;;;;;;;;687769;28;872;-73
2023/12/21 00:30:34;;;;;;;6.70;3.47;;;;;;;;;;688923;28;1861;-73
2023/12/21 00:30:54;;;;;;;6.10;3.73;;;;;;;;;;691557;28;4380;-72
2023/12/21 00:31:15;;;;;;;6.30;3.55;;;;;;;;;;697051;28;1495;-72
2023/12/21 00:31:35;;;;;;;6.10;3.37;;;;;;;;;;695421;28;1870;-73
2023/12/21 00:31:56;;;;;;;5.57;3.30;;;;;;;;;;695879;28;1183;-73
2023/12/21 00:32:16;;;;;;;5.90;3.23;;;;;;;;;;696005;28;852;-70
2023/12/21 00:32:36;;;;;;;6.07;3.47;;;;;;;;;;695308;28;2347;-70
2023/12/21 00:32:57;;;;;;;7.30;3.40;;;;;;;;;;695522;28;785;-71
2023/12/21 00:33:17;;;;;;;7.27;3.27;;;;;;;;;;693904;28;1219;-72
2023/12/21 00:33:37;;;;;;;5.78;3.28;;;;;;;;;;694117;28;4456;-72
2023/12/21 00:33:57;;;;;;;5.43;3.20;;;;;;;;;;695409;28;888;-74
2023/12/21 00:34:17;;;;;;;5.63;3.33;;;;;;;;;;695623;28;892;-72
2023/12/21 00:34:38;;;;;;;5.57;3.33;;;;;;;;;;694082;28;2363;-73
2023/12/21 00:34:58;;;;;;;5.63;3.42;;;;;;;;;;690837;28;1918;-72
2023/12/21 00:35:18;;;;;;;6.80;3.60;;;;;;;;;;690401;28;1333;-72
2023/12/21 00:35:39;;;;;;;7.33;3.60;;;;;;;;;;688756;28;1734;-73
2023/12/21 00:35:59;;;;;;;6.50;3.53;;;;;;;;;;690180;28;809;-75
2023/12/21 00:36:19;;;;;;;6.90;3.70;;;;;;;;;;687710;28;924;-71
2023/12/21 00:36:39;;;;;;;6.83;4.13;;;;;;;;;;689181;28;4554;-72
2023/12/21 00:37:00;;;;;;;6.32;3.80;;;;;;;;;;694764;28;792;-73
2023/12/21 00:37:21;;;;;;;6.37;3.53;;;;;;;;;;693912;28;1299;-72
2023/12/21 00:37:41;;;;;;;6.15;3.80;;;;;;;;;;692405;28;1458;-72
2023/12/21 00:38:01;;;;;;;5.53;3.67;;;;;;;;;;692217;28;876;-73
2023/12/21 00:38:22;;;;;;;5.18;3.30;;;;;;;;;;694399;28;1423;-71
2023/12/21 00:38:42;;;;;;;5.97;3.23;;;;;;;;;;693172;28;2247;-73
2023/12/21 00:39:02;;;;;;;6.23;3.20;;;;;;;;;;693820;28;5570;-73
2023/12/21 00:39:22;;;;;;;7.15;3.50;;;;;;;;;;693195;28;1207;-71
2023/12/21 00:39:43;;;;;;;7.00;3.60;;;;;;;;;;691189;28;4315;-73
2023/12/21 00:40:04;;;;;;;7.37;4.00;;;;;;;;;;691251;28;1048;-72
2023/12/21 00:40:25;;;;;;;7.85;3.97;;;;;;;;;;691252;28;880;-74
2023/12/21 00:40:45;;;;;;;6.28;3.63;;;;;;;;;;690621;28;1202;-74
2023/12/21 00:41:05;;;;;;;5.10;3.40;;;;;;;;;;689470;28;1143;-73
2023/12/21 00:41:25;;;;;;;5.87;3.67;;;;;;;;;;687921;28;917;-72
2023/12/21 00:41:46;;;;;;;6.28;3.50;;;;;;;;;;689075;28;1553;-72
2023/12/21 00:42:06;;;;;;;5.77;3.60;;;;;;;;;;689343;28;840;-73
2023/12/21 00:42:26;;;;;;;6.20;3.60;;;;;;;;;;688780;28;1153;-73
2023/12/21 00:42:47;;;;;;;7.13;3.60;;;;;;;;;;688934;28;4386;-73
2023/12/21 00:43:08;;;;;;;6.13;3.65;;;;;;;;;;689865;28;1046;-73
2023/12/21 00:43:28;;;;;;;5.90;3.60;;;;;;;;;;691436;28;1691;-73
2023/12/21 00:43:48;;;;;;;6.10;3.50;;;;;;;;;;696091;28;892;-73
2023/12/21 00:44:08;;;;;;;6.85;3.60;;;;;;;;;;697779;28;1265;-73
2023/12/21 00:44:29;;;;;;;6.83;3.87;;;;;;;;;;696195;28;2688;-73
2023/12/21 00:44:49;;;;;;;5.50;3.60;;;;;;;;;;698745;28;939;-73
2023/12/21 00:45:09;;;;;;;5.75;3.40;;;;;;;;;;699004;28;991;-72
2023/12/21 00:45:30;;;;;;;5.93;3.60;;;;;;;;;;691839;28;2710;-72
2023/12/21 00:45:50;;;;;;;5.43;3.67;;;;;;;;;;692845;28;4379;-73
2023/12/21 00:46:11;;;;;;;7.70;3.67;;;;;;;;;;691679;28;1156;-73
2023/12/21 00:46:31;;;;;;;8.23;3.65;;;;;;;;;;690037;28;1929;-73
2023/12/21 00:46:52;;;;;;;6.30;3.87;;;;;;;;;;692479;28;958;-74
2023/12/21 00:47:12;;;;;;;6.47;3.95;;;;;;;;;;691405;28;860;-73
2023/12/21 00:47:32;;;;;;;6.73;3.70;;;;;;;;;;691886;28;1764;-73
2023/12/21 00:47:52;;;;;;;6.77;3.80;;;;;;;;;;691092;28;927;-74
2023/12/21 00:48:14;;;;;;;5.83;3.50;;;;;;;;;;693506;28;785;-73
2023/12/21 00:48:35;;;;;;;7.80;3.70;;;;;;;;;;691647;28;1908;-73
2023/12/21 00:48:55;;;;;;;7.30;3.87;;;;;;;;;;692126;28;4280;-73
2023/12/21 00:49:15;;;;;;;6.53;3.97;;;;;;;;;;691678;28;1132;-73
2023/12/21 00:49:35;;;;;;;5.33;3.73;;;;;;;;;;694713;28;1650;-72
2023/12/21 00:49:56;;;;;;;7.15;3.90;;;;;;;;;;693179;28;892;-72
2023/12/21 00:50:16;;;;;;;7.13;4.27;;;;;;;;;;691641;28;3253;-73
2023/12/21 00:50:36;;;;;;;8.43;4.30;;;;;;;;;;691446;28;1783;-73
2023/12/21 00:50:56;;;;;;;8.20;4.05;;;;;;;;;;694702;28;960;-73
2023/12/21 00:51:17;;;;;;;7.53;4.10;;;;;;;;;;694474;28;868;-73
2023/12/21 00:51:37;;;;;;;7.30;4.20;;;;;;;;;;690141;28;4450;-73
2023/12/21 00:51:57;;;;;;;6.77;4.23;;;;;;;;;;693331;28;1008;-74
2023/12/21 00:52:17;;;;;;;7.50;4.23;;;;;;;;;;692982;28;1381;-73
2023/12/21 00:52:37;;;;;;;9.17;4.33;;;;;;;;;;691529;28;2320;-72
2023/12/21 00:52:58;;;;;;;6.90;4.20;;;;;;;;;;693335;28;817;-71
2023/12/21 00:53:19;;;;;;;6.30;4.13;;;;;;;;;;693233;28;1272;-72
2023/12/21 00:53:39;;;;;;;5.75;4.25;;;;;;;;;;691597;28;1848;-73
2023/12/21 00:53:59;;;;;;;7.90;4.40;;;;;;;;;;693138;28;868;-73
2023/12/21 00:54:20;;;;;;;8.33;4.50;;;;;;;;;;693254;28;892;-72
2023/12/21 00:54:40;;;;;;;7.45;4.40;;;;;;;;;;690917;28;4614;-73
2023/12/21 00:55:00;;;;;;;7.80;4.57;;;;;;;;;;693106;28;1980;-74
2023/12/21 00:55:20;;;;;;;8.13;4.40;;;;;;;;;;692878;28;1236;-72
2023/12/21 00:55:41;;;;;;;5.68;4.30;;;;;;;;;;691805;28;1817;-73
2023/12/21 00:56:01;;;;;;;7.53;4.53;;;;;;;;;;693228;28;900;-73
2023/12/21 00:56:21;;;;;;;7.17;4.00;;;;;;;;;;693028;28;1202;-71
2023/12/21 00:56:41;;;;;;;5.78;3.97;;;;;;;;;;691304;28;2043;-73
2023/12/21 00:57:05;;;;;;;6.43;4.07;;;;;;;;;;689266;28;2093;-71
2023/12/21 00:57:25;;;;;;;7.22;4.15;;;;;;;;;;689901;28;952;-73
2023/12/21 00:57:45;;;;;;;8.37;4.40;;;;;;;;;;687840;28;4315;-73
2023/12/21 00:58:05;;;;;;;7.17;5.00;;;;;;;;;;689148;28;1414;-70
2023/12/21 00:58:26;;;;;;;6.80;4.40;;;;;;;;;;693534;28;1338;-73
2023/12/21 00:58:46;;;;;;;6.97;4.17;;;;;;;;;;693801;28;2375;-73
2023/12/21 00:59:06;;;;;;;6.60;4.18;;;;;;;;;;697253;28;864;-73
2023/12/21 00:59:27;;;;;;;6.30;4.17;;;;;;;;;;695619;28;853;-73
2023/12/21 00:59:47;;;;;;;6.80;4.30;;;;;;;;;;692459;28;1730;-74
2023/12/21 01:00:07;;;;;;;6.43;4.33;;;;;;;;;;694467;28;1321;-75
2023/12/21 01:00:28;;;;;;;6.70;4.23;;;;;;;;;;690333;28;946;-73
2023/12/21 01:00:48;;;;;;;7.00;4.43;;;;;;;;;;691076;28;5221;-74
2023/12/21 01:01:08;;;;;;;6.70;4.13;;;;;;;;;;692611;28;936;-71
2023/12/21 01:01:28;;;;;;;6.67;3.97;;;;;;;;;;692024;28;2072;-73
2023/12/21 01:01:49;;;;;;;6.57;4.00;;;;;;;;;;692824;28;1259;-73
2023/12/21 01:02:09;;;;;;;6.80;4.00;;;;;;;;;;692509;28;1024;-73
2023/12/21 01:02:29;;;;;;;7.47;4.23;;;;;;;;;;688018;28;1832;-73
2023/12/21 01:02:50;;;;;;;7.47;4.20;;;;;;;;;;690278;28;829;-74
2023/12/21 01:03:10;;;;;;;6.07;4.30;;;;;;;;;;690054;28;1186;-74
2023/12/21 01:03:30;;;;;;;5.97;4.00;;;;;;;;;;691474;28;1977;-74
2023/12/21 01:03:51;;;;;;;6.93;4.07;;;;;;;;;;689863;28;5139;-73
2023/12/21 01:04:11;;;;;;;5.93;4.20;;;;;;;;;;692980;28;720;-71
2023/12/21 01:04:31;;;;;;;6.20;4.00;;;;;;;;;;691911;28;2428;-72
2023/12/21 01:04:51;;;;;;;6.33;3.90;;;;;;;;;;692729;28;928;-72
2023/12/21 01:05:12;;;;;;;6.37;4.00;;;;;;;;;;689466;28;1315;-72
2023/12/21 01:05:32;;;;;;;6.50;4.13;;;;;;;;;;686150;28;1384;-73
2023/12/21 01:05:52;;;;;;;7.57;4.10;;;;;;;;;;686585;28;894;-73
2023/12/21 01:06:12;;;;;;;7.50;4.10;;;;;;;;;;683118;28;984;-72
2023/12/21 01:06:36;;;;;;;6.95;3.85;;;;;;;;;;683548;28;2402;-73
2023/12/21 01:06:56;;;;;;;6.95;4.07;;;;;;;;;;684922;28;4688;-73
2023/12/21 01:07:16;;;;;;;6.83;4.07;;;;;;;;;;687777;28;1191;-74
2023/12/21 01:07:37;;;;;;;6.43;3.87;;;;;;;;;;691372;28;1684;-73
2023/12/21 01:07:58;;;;;;;7.50;4.23;;;;;;;;;;692647;28;1265;-74
2023/12/21 01:08:18;;;;;;;7.20;4.25;;;;;;;;;;691428;28;1398;-76
2023/12/21 01:08:38;;;;;;;5.57;3.70;;;;;;;;;;691333;28;1722;-73
2023/12/21 01:08:59;;;;;;;6.28;3.80;;;;;;;;;;693896;28;1238;-73
2023/12/21 01:09:19;;;;;;;6.70;3.80;;;;;;;;;;692850;28;801;-73
2023/12/21 01:09:39;;;;;;;7.20;3.92;;;;;;;;;;692968;28;4264;-74
2023/12/21 01:10:00;;;;;;;5.90;3.80;;;;;;;;;;693669;28;1243;-73
2023/12/21 01:10:20;;;;;;;6.27;3.70;;;;;;;;;;692200;28;2131;-71
2023/12/21 01:10:40;;;;;;;7.30;3.60;;;;;;;;;;691834;28;2332;-73
2023/12/21 01:11:00;;;;;;;6.70;4.00;;;;;;;;;;690445;28;1131;-73
2023/12/21 01:11:21;;;;;;;5.83;3.67;;;;;;;;;;689949;28;1354;-72
2023/12/21 01:11:41;;;;;;;6.43;3.97;;;;;;;;;;688871;28;1448;-72
2023/12/21 01:12:01;;;;;;;6.83;4.03;;;;;;;;;;689925;28;1175;-71
2023/12/21 01:12:21;;;;;;;6.27;3.93;;;;;;;;;;691060;28;1570;-73
2023/12/21 01:12:42;;;;;;;6.93;4.00;;;;;;;;;;690169;28;4431;-72
2023/12/21 01:13:02;;;;;;;7.20;4.20;;;;;;;;;;693780;28;1207;-72
2023/12/21 01:13:22;;;;;;;7.40;4.00;;;;;;;;;;695048;28;852;-72
2023/12/21 01:13:43;;;;;;;7.77;4.13;;;;;;;;;;694748;28;1715;-71
2023/12/21 01:14:03;;;;;;;6.28;3.67;;;;;;;;;;694350;28;1382;-73
2023/12/21 01:14:24;;;;;;;7.03;4.17;;;;;;;;;;690110;28;1156;-73
2023/12/21 01:14:44;;;;;;;6.95;4.10;;;;;;;;;;691329;28;1888;-72
2023/12/21 01:15:05;;;;;;;6.37;3.90;;;;;;;;;;689701;28;1917;-73
2023/12/21 01:15:26;;;;;;;5.75;3.70;;;;;;;;;;688683;28;854;-73
2023/12/21 01:15:46;;;;;;;6.80;4.30;;;;;;;;;;685030;28;4273;-71
2023/12/21 01:16:07;;;;;;;7.97;4.50;;;;;;;;;;686554;28;1312;-72
2023/12/21 01:16:27;;;;;;;6.43;4.40;;;;;;;;;;688918;28;3199;-72
2023/12/21 01:16:47;;;;;;;6.10;3.90;;;;;;;;;;686674;28;1227;-72
2023/12/21 01:17:08;;;;;;;7.13;3.97;;;;;;;;;;690394;28;853;-72
2023/12/21 01:17:28;;;;;;;6.97;3.90;;;;;;;;;;688640;28;1277;-74
2023/12/21 01:17:48;;;;;;;5.68;3.90;;;;;;;;;;688448;28;1745;-70
2023/12/21 01:18:08;;;;;;;7.10;4.30;;;;;;;;;;690282;28;753;-71
2023/12/21 01:18:29;;;;;;;8.70;4.57;;;;;;;;;;690240;28;967;-73
2023/12/21 01:18:49;;;;;;;7.75;4.00;;;;;;;;;;690789;28;4265;-74
2023/12/21 01:19:09;;;;;;;6.50;3.97;;;;;;;;;;692134;28;992;-72
2023/12/21 01:19:29;;;;;;;6.07;4.17;;;;;;;;;;692221;28;1438;-73
2023/12/21 01:19:50;;;;;;;6.65;4.28;;;;;;;;;;691491;28;1180;-73
2023/12/21 01:20:10;;;;;;;6.80;4.00;;;;;;;;;;688896;28;1261;-76
2023/12/21 01:20:31;;;;;;;5.72;4.20;;;;;;;;;;687346;28;2945;-72
2023/12/21 01:20:51;;;;;;;7.00;4.27;;;;;;;;;;684323;28;1203;-73
2023/12/21 01:21:11;;;;;;;7.57;4.40;;;;;;;;;;688642;28;1304;-73
2023/12/21 01:21:31;;;;;;;6.97;4.40;;;;;;;;;;688961;28;1071;-73
2023/12/21 01:21:52;;;;;;;6.75;4.28;;;;;;;;;;691244;28;5215;-72
2023/12/21 01:22:12;;;;;;;5.53;4.03;;;;;;;;;;690206;28;1456;-73
2023/12/21 01:22:32;;;;;;;6.30;4.00;;;;;;;;;;689082;28;2247;-73
2023/12/21 01:22:52;;;;;;;6.95;4.32;;;;;;;;;;689556;28;1400;-73
2023/12/21 01:23:13;;;;;;;7.60;4.57;;;;;;;;;;690957;28;1351;-73
2023/12/21 01:23:33;;;;;;;6.27;4.23;;;;;;;;;;690980;28;2246;-72
2023/12/21 01:23:53;;;;;;;8.00;4.32;;;;;;;;;;691526;28;991;-72
2023/12/21 01:24:13;;;;;;;9.10;4.50;;;;;;;;;;688734;28;1100;-72
2023/12/21 01:24:34;;;;;;;6.93;4.27;;;;;;;;;;688767;28;1742;-74
2023/12/21 01:24:54;;;;;;;6.07;4.03;;;;;;;;;;690668;28;4284;-73
2023/12/21 01:25:14;;;;;;;6.70;4.73;;;;;;;;;;686047;28;891;-72
2023/12/21 01:25:35;;;;;;;6.50;4.60;;;;;;;;;;685555;28;2003;-73
2023/12/21 01:25:55;;;;;;;6.70;4.40;;;;;;;;;;689087;28;877;-69
2023/12/21 01:26:15;;;;;;;6.40;4.03;;;;;;;;;;694607;28;1281;-75
2023/12/21 01:26:36;;;;;;;6.43;4.47;;;;;;;;;;691579;28;1082;-72
2023/12/21 01:26:56;;;;;;;6.37;4.40;;;;;;;;;;688617;28;1130;-72
2023/12/21 01:27:16;;;;;;;7.60;4.67;;;;;;;;;;692557;28;897;-73
2023/12/21 01:27:36;;;;;;;8.20;4.40;;;;;;;;;;691302;28;4438;-70
2023/12/21 01:27:57;;;;;;;7.53;4.40;;;;;;;;;;693076;28;1322;-69
2023/12/21 01:28:17;;;;;;;7.13;4.60;;;;;;;;;;689880;28;1133;-75
2023/12/21 01:28:37;;;;;;;7.07;4.83;;;;;;;;;;689895;28;1034;-73
2023/12/21 01:28:57;;;;;;;7.20;4.70;;;;;;;;;;690269;28;1047;-76
2023/12/21 01:29:18;;;;;;;7.37;4.37;;;;;;;;;;692290;28;984;-71
2023/12/21 01:29:38;;;;;;;7.57;4.47;;;;;;;;;;691853;28;1342;-73
2023/12/21 01:29:58;;;;;;;7.15;4.78;;;;;;;;;;692570;28;1452;-72
2023/12/21 01:30:21;;;;;;;7.20;5.13;;;;;;;;;;692487;28;848;-73
2023/12/21 01:30:41;;;;;;;7.57;5.00;;;;;;;;;;691580;28;4275;-74
2023/12/21 01:31:01;;;;;;;7.95;4.85;;;;;;;;;;697451;28;904;-72
2023/12/21 01:31:21;;;;;;;7.70;4.90;;;;;;;;;;692231;28;1339;-72
2023/12/21 01:31:42;;;;;;;8.13;5.20;;;;;;;;;;690477;28;2238;-73
2023/12/21 01:32:02;;;;;;;8.05;5.07;;;;;;;;;;687693;28;936;-71
2023/12/21 01:32:22;;;;;;;7.87;5.07;;;;;;;;;;688165;28;1132;-73
2023/12/21 01:32:42;;;;;;;9.00;5.30;;;;;;;;;;688498;28;1673;-73
2023/12/21 01:33:03;;;;;;;7.78;5.13;;;;;;;;;;688946;28;810;-73
2023/12/21 01:33:24;;;;;;;7.47;5.38;;;;;;;;;;689913;28;1121;-73
2023/12/21 01:33:44;;;;;;;8.20;5.30;;;;;;;;;;688840;28;5261;-72
2023/12/21 01:34:05;;;;;;;9.00;5.20;;;;;;;;;;695518;28;1146;-72
2023/12/21 01:34:25;;;;;;;8.00;5.00;;;;;;;;;;697689;28;1298;-74
2023/12/21 01:34:45;;;;;;;8.18;4.80;;;;;;;;;;697377;28;1164;-70
2023/12/21 01:35:06;;;;;;;7.80;5.00;;;;;;;;;;698307;28;1964;-74
2023/12/21 01:35:26;;;;;;;8.57;5.30;;;;;;;;;;697891;28;916;-71
2023/12/21 01:35:46;;;;;;;9.38;5.43;;;;;;;;;;694381;28;1484;-68
2023/12/21 01:36:10;;;;;;;9.27;5.20;;;;;;;;;;692928;28;1212;-71
2023/12/21 01:36:30;;;;;;;9.70;5.28;;;;;;;;;;692388;28;862;-71
2023/12/21 01:36:50;;;;;;;9.07;5.65;;;;;;;;;;690744;28;4251;-70
2023/12/21 01:37:10;;;;;;;10.17;5.60;;;;;;;;;;692963;28;959;-69
2023/12/21 01:37:30;;;;;;;9.07;5.43;;;;;;;;;;692762;28;1267;-69
2023/12/21 01:37:51;;;;;;;8.83;5.77;;;;;;;;;;691800;28;1756;-69
2023/12/21 01:38:11;;;;;;;8.88;5.45;;;;;;;;;;692718;28;876;-69
2023/12/21 01:38:32;;;;;;;9.83;5.70;;;;;;;;;;691369;28;1822;-70
2023/12/21 01:38:52;;;;;;;10.10;5.82;;;;;;;;;;692961;28;1217;-69
2023/12/21 01:39:12;;;;;;;8.90;5.83;;;;;;;;;;692434;28;1317;-69
2023/12/21 01:39:33;;;;;;;8.80;5.80;;;;;;;;;;691650;28;2315;-70
2023/12/21 01:39:53;;;;;;;9.83;5.73;;;;;;;;;;691907;28;4378;-69
2023/12/21 01:40:14;;;;;;;10.07;5.93;;;;;;;;;;695113;28;1456;-69
2023/12/21 01:40:34;;;;;;;10.25;5.93;;;;;;;;;;694308;28;2473;-66
2023/12/21 01:40:55;;;;;;;11.60;5.87;;;;;;;;;;692502;28;1251;-68
2023/12/21 01:41:16;;;;;;;11.13;6.30;;;;;;;;;;695016;28;884;-68
2023/12/21 01:41:36;;;;;;;11.05;5.90;;;;;;;;;;694691;28;2268;-69
2023/12/21 01:41:57;;;;;;;10.10;6.40;;;;;;;;;;693229;28;1681;-70
2023/12/21 01:42:17;;;;;;;9.27;6.30;;;;;;;;;;689978;28;790;-71
2023/12/21 01:42:37;;;;;;;11.25;6.20;;;;;;;;;;688283;28;4284;-70
2023/12/21 01:42:58;;;;;;;10.47;6.27;;;;;;;;;;689983;28;960;-71
2023/12/21 01:43:18;;;;;;;10.67;6.70;;;;;;;;;;689873;28;865;-70
2023/12/21 01:43:38;;;;;;;10.45;6.45;;;;;;;;;;690774;28;1985;-71
2023/12/21 01:43:58;;;;;;;9.27;6.13;;;;;;;;;;689330;28;1197;-70
2023/12/21 01:44:19;;;;;;;9.17;6.17;;;;;;;;;;691580;28;845;-72
2023/12/21 01:44:39;;;;;;;10.38;6.00;;;;;;;;;;688349;28;1805;-70
2023/12/21 01:44:59;;;;;;;8.90;5.87;;;;;;;;;;691402;28;905;-71
2023/12/21 01:45:19;;;;;;;8.23;5.97;;;;;;;;;;691522;28;1197;-72
2023/12/21 01:45:40;;;;;;;9.10;6.25;;;;;;;;;;685034;28;4463;-71
2023/12/21 01:46:01;;;;;;;9.17;6.47;;;;;;;;;;688394;28;1401;-71
2023/12/21 01:46:23;;;;;;;9.95;6.80;;;;;;;;;;689746;28;3076;-72
2023/12/21 01:46:43;;;;;;;10.57;6.50;;;;;;;;;;690155;28;1750;-71
2023/12/21 01:47:04;;;;;;;10.00;6.50;;;;;;;;;;687678;28;1300;-72
2023/12/21 01:47:24;;;;;;;9.13;6.30;;;;;;;;;;692141;28;1346;-70
2023/12/21 01:47:45;;;;;;;9.50;6.17;;;;;;;;;;687606;28;2185;-70
2023/12/21 01:48:06;;;;;;;9.20;6.50;;;;;;;;;;686893;28;1019;-72
2023/12/21 01:48:28;;;;;;;8.63;6.27;;;;;;;;;;686917;28;1100;-71
2023/12/21 01:48:48;;;;;;;10.32;6.22;;;;;;;;;;685718;28;4270;-72
2023/12/21 01:49:08;;;;;;;10.65;6.25;;;;;;;;;;690819;28;893;-72
2023/12/21 01:49:29;;;;;;;11.13;6.20;;;;;;;;;;691145;28;873;-72
2023/12/21 01:49:49;;;;;;;9.40;5.80;;;;;;;;;;694287;28;2159;-72
2023/12/21 01:50:10;;;;;;;9.37;6.00;;;;;;;;;;693207;28;1031;-71
2023/12/21 01:50:30;;;;;;;9.63;6.10;;;;;;;;;;692593;28;1254;-72
2023/12/21 01:50:50;;;;;;;8.97;5.97;;;;;;;;;;685915;28;1905;-71
2023/12/21 01:51:11;;;;;;;8.03;5.70;;;;;;;;;;684848;28;944;-71
2023/12/21 01:51:32;;;;;;;8.35;5.78;;;;;;;;;;687284;28;956;-69
2023/12/21 01:51:53;;;;;;;9.13;5.97;;;;;;;;;;689453;28;4446;-71
2023/12/21 01:52:13;;;;;;;9.45;5.90;;;;;;;;;;687879;28;1433;-72
2023/12/21 01:52:33;;;;;;;9.83;5.87;;;;;;;;;;686529;28;1782;-72
2023/12/21 01:52:55;;;;;;;9.07;6.00;;;;;;;;;;687430;28;1129;-71
2023/12/21 01:53:16;;;;;;;9.20;6.00;;;;;;;;;;684689;28;1347;-72
2023/12/21 01:53:38;;;;;;;8.15;5.90;;;;;;;;;;681561;28;1769;-70
2023/12/21 01:54:02;;;;;;;9.38;6.05;;;;;;;;;;683222;28;1340;-71
2023/12/21 01:54:22;;;;;;;9.80;5.75;;;;;;;;;;684645;28;1435;-71
2023/12/21 01:54:43;;;;;;;8.53;5.40;;;;;;;;;;684328;28;4442;-72
2023/12/21 01:55:05;;;;;;;8.43;5.47;;;;;;;;;;687582;28;1928;-72
2023/12/21 01:55:27;;;;;;;8.48;5.70;;;;;;;;;;689720;28;1386;-72
2023/12/21 01:55:47;;;;;;;10.13;5.88;;;;;;;;;;688958;28;1725;-73
2023/12/21 01:56:08;;;;;;;11.70;5.97;;;;;;;;;;689511;28;941;-73
2023/12/21 01:56:29;;;;;;;9.85;5.93;;;;;;;;;;689714;28;905;-72
2023/12/21 01:56:49;;;;;;;8.50;6.10;;;;;;;;;;692171;28;2229;-72
2023/12/21 01:57:10;;;;;;;7.70;5.83;;;;;;;;;;692322;28;1286;-73
2023/12/21 01:57:30;;;;;;;8.88;5.93;;;;;;;;;;690481;28;1260;-71
2023/12/21 01:57:51;;;;;;;8.93;5.73;;;;;;;;;;691051;28;4255;-73
2023/12/21 01:58:11;;;;;;;10.63;5.53;;;;;;;;;;692790;28;1340;-72
2023/12/21 01:58:32;;;;;;;9.13;5.50;;;;;;;;;;692466;28;1527;-73
2023/12/21 01:58:53;;;;;;;8.70;5.80;;;;;;;;;;689956;28;1294;-72
2023/12/21 01:59:13;;;;;;;8.48;5.90;;;;;;;;;;689308;28;916;-70
2023/12/21 01:59:33;;;;;;;8.63;5.70;;;;;;;;;;689586;28;1598;-73
2023/12/21 01:59:55;;;;;;;9.00;5.50;;;;;;;;;;692545;28;850;-73
2023/12/21 02:00:16;;;;;;;9.50;5.67;;;;;;;;;;692802;28;1283;-73
2023/12/21 02:00:36;;;;;;;9.23;5.73;;;;;;;;;;690680;28;4475;-71
2023/12/21 02:00:57;;;;;;;7.78;5.13;;;;;;;;;;692735;28;856;-70
2023/12/21 02:01:19;;;;;;;8.18;5.13;;;;;;;;;;691570;28;846;-71
2023/12/21 02:01:39;;;;;;;8.98;5.70;;;;;;;;;;690420;28;1817;-73
2023/12/21 02:02:00;;;;;;;7.80;5.65;;;;;;;;;;691247;28;1102;-71
2023/12/21 02:02:20;;;;;;;7.80;5.40;;;;;;;;;;692762;28;1451;-71
2023/12/21 02:02:40;;;;;;;8.32;5.40;;;;;;;;;;694088;28;1556;-72
2023/12/21 02:03:01;;;;;;;8.60;5.60;;;;;;;;;;695317;28;785;-72
2023/12/21 02:03:21;;;;;;;9.55;5.70;;;;;;;;;;695083;28;920;-70
2023/12/21 02:03:41;;;;;;;9.97;5.43;;;;;;;;;;693892;28;4249;-72
2023/12/21 02:04:02;;;;;;;9.43;5.43;;;;;;;;;;692568;28;983;-73
2023/12/21 02:04:22;;;;;;;9.25;5.63;;;;;;;;;;695397;28;1285;-71
2023/12/21 02:04:43;;;;;;;9.03;5.33;;;;;;;;;;694910;28;1434;-72
2023/12/21 02:05:04;;;;;;;8.43;5.00;;;;;;;;;;695299;28;1428;-73
2023/12/21 02:05:24;;;;;;;8.80;5.07;;;;;;;;;;695412;28;768;-74
2023/12/21 02:05:44;;;;;;;8.77;4.90;;;;;;;;;;693828;28;2491;-72
2023/12/21 02:06:04;;;;;;;9.37;5.23;;;;;;;;;;697599;28;1335;-73
2023/12/21 02:06:25;;;;;;;8.27;5.10;;;;;;;;;;695313;28;1869;-72
2023/12/21 02:06:45;;;;;;;8.30;4.95;;;;;;;;;;690163;28;4420;-73